createdAt,value
2018-07-17T00:01:53.977Z,6.80
2018-07-17T00:04:22.383Z,6.93
2018-07-17T00:06:50.779Z,6.77
2018-07-17T00:09:19.157Z,6.83
2018-07-17T00:11:47.551Z,6.77
2018-07-17T00:14:15.917Z,6.53
2018-07-17T00:16:44.350Z,6.57
2018-07-17T00:19:12.700Z,6.60
2018-07-17T00:21:41.253Z,6.47
2018-07-17T00:24:09.690Z,6.33
2018-07-17T00:26:38.077Z,6.77
2018-07-17T00:29:06.198Z,6.37
2018-07-17T00:31:34.639Z,6.33
2018-07-17T00:34:03.088Z,6.77
2018-07-17T00:36:31.514Z,6.13
2018-07-17T00:38:59.938Z,6.13
2018-07-17T00:41:28.363Z,6.43
2018-07-17T00:43:56.478Z,6.53
2018-07-17T00:46:24.886Z,6.50
2018-07-17T00:48:53.293Z,6.70
2018-07-17T00:51:21.704Z,6.50
2018-07-17T00:53:50.158Z,6.57
2018-07-17T00:56:18.602Z,6.50
2018-07-17T00:58:47.089Z,6.30
2018-07-17T01:01:20.713Z,6.33
2018-07-17T01:03:54.421Z,6.23
2018-07-17T01:06:28.233Z,6.40
2018-07-17T01:09:02.033Z,6.47
2018-07-17T01:11:35.764Z,6.47
2018-07-17T01:14:09.279Z,6.30
2018-07-17T01:16:37.817Z,6.50
2018-07-17T01:19:06.281Z,6.37
2018-07-17T01:21:34.690Z,6.30
2018-07-17T01:24:03.082Z,6.77
2018-07-17T01:26:31.469Z,6.33
2018-07-17T01:28:59.893Z,6.50
2018-07-17T01:31:28.269Z,6.20
2018-07-17T01:33:56.654Z,6.40
2018-07-17T01:36:25.108Z,6.50
2018-07-17T01:38:53.537Z,6.70
2018-07-17T01:41:21.912Z,6.50
2018-07-17T01:43:50.363Z,6.63
2018-07-17T01:46:18.749Z,6.67
2018-07-17T01:48:47.130Z,7.03
2018-07-17T01:51:15.560Z,6.90
2018-07-17T01:53:43.947Z,6.87
2018-07-17T01:56:12.351Z,7.37
2018-07-17T01:58:40.776Z,8.00
2018-07-17T02:01:09.165Z,7.73
2018-07-17T02:03:38.565Z,8.20
2018-07-17T02:06:07.042Z,7.50
2018-07-17T02:08:35.493Z,8.60
2018-07-17T02:11:03.881Z,8.13
2018-07-17T02:13:32.269Z,8.20
2018-07-17T02:16:00.671Z,8.70
2018-07-17T02:18:29.048Z,8.90
2018-07-17T02:20:57.435Z,8.10
2018-07-17T02:23:25.846Z,7.90
2018-07-17T02:25:54.282Z,7.97
2018-07-17T02:28:22.742Z,8.00
2018-07-17T02:30:51.226Z,8.20
2018-07-17T02:33:19.713Z,7.83
2018-07-17T02:35:48.343Z,7.83
2018-07-17T02:38:16.791Z,7.27
2018-07-17T02:40:45.258Z,7.57
2018-07-17T02:43:13.676Z,8.37
2018-07-17T02:45:42.112Z,7.57
2018-07-17T02:48:10.595Z,7.43
2018-07-17T02:50:39.039Z,8.07
2018-07-17T02:53:07.489Z,8.60
2018-07-17T02:55:35.858Z,8.20
2018-07-17T02:58:04.314Z,8.33
2018-07-17T03:00:32.710Z,7.83
2018-07-17T03:03:01.141Z,8.10
2018-07-17T03:05:29.542Z,7.97
2018-07-17T03:07:57.989Z,8.23
2018-07-17T03:10:26.469Z,8.37
2018-07-17T03:12:54.907Z,8.43
2018-07-17T03:15:23.298Z,8.03
2018-07-17T03:17:51.676Z,7.90
2018-07-17T03:20:20.234Z,8.30
2018-07-17T03:22:49.338Z,8.33
2018-07-17T03:25:17.776Z,8.00
2018-07-17T03:27:46.152Z,8.10
2018-07-17T03:30:14.541Z,8.07
2018-07-17T03:32:42.980Z,8.20
2018-07-17T03:35:11.402Z,8.63
2018-07-17T03:37:39.870Z,8.57
2018-07-17T03:40:08.340Z,8.53
2018-07-17T03:42:36.736Z,8.63
2018-07-17T03:45:05.954Z,8.80
2018-07-17T03:47:34.342Z,8.60
2018-07-17T03:50:02.820Z,8.40
2018-07-17T03:52:31.351Z,8.60
2018-07-17T03:54:59.779Z,8.67
2018-07-17T03:57:28.203Z,8.40
2018-07-17T03:59:56.653Z,8.87
2018-07-17T04:02:25.117Z,8.83
2018-07-17T04:04:53.542Z,8.30
2018-07-17T04:07:21.941Z,8.70
2018-07-17T04:09:50.411Z,8.20
2018-07-17T04:12:18.832Z,8.83
2018-07-17T04:14:47.217Z,8.80
2018-07-17T04:17:15.613Z,9.00
2018-07-17T04:19:44.012Z,8.27
2018-07-17T04:22:12.405Z,8.50
2018-07-17T04:24:40.835Z,8.97
2018-07-17T04:27:09.274Z,9.23
2018-07-17T04:29:37.679Z,9.10
2018-07-17T04:32:06.194Z,8.40
2018-07-17T04:34:34.689Z,8.70
2018-07-17T04:37:03.106Z,8.27
2018-07-17T04:39:31.498Z,8.77
2018-07-17T04:41:59.919Z,8.40
2018-07-17T04:44:28.316Z,8.63
2018-07-17T04:46:56.706Z,8.47
2018-07-17T04:49:25.125Z,8.90
2018-07-17T04:51:53.581Z,9.40
2018-07-17T04:54:22.016Z,9.33
2018-07-17T04:56:50.513Z,9.87
2018-07-17T04:59:18.958Z,9.37
2018-07-17T05:01:47.425Z,10.27
2018-07-17T05:04:15.781Z,10.00
2018-07-17T05:06:44.218Z,9.90
2018-07-17T05:09:12.713Z,10.27
2018-07-17T05:11:41.101Z,11.30
2018-07-17T05:14:09.479Z,11.27
2018-07-17T05:16:37.886Z,11.73
2018-07-17T05:19:07.228Z,11.70
2018-07-17T05:21:35.769Z,13.17
2018-07-17T05:24:04.276Z,11.80
2018-07-17T05:26:32.701Z,12.40
2018-07-17T05:29:01.207Z,12.37
2018-07-17T05:31:29.642Z,12.20
2018-07-17T05:33:58.077Z,13.00
2018-07-17T05:36:26.145Z,12.07
2018-07-17T05:38:54.582Z,12.73
2018-07-17T05:41:23.408Z,13.20
2018-07-17T05:43:51.881Z,13.07
2018-07-17T05:46:26.659Z,12.57
2018-07-17T05:48:55.083Z,12.63
2018-07-17T05:51:23.552Z,13.47
2018-07-17T05:53:52.333Z,12.20
2018-07-17T05:56:21.381Z,13.73
2018-07-17T05:58:49.817Z,13.43
2018-07-17T06:01:18.244Z,13.93
2018-07-17T06:03:46.633Z,12.30
2018-07-17T06:06:14.752Z,13.47
2018-07-17T06:08:43.219Z,14.37
2018-07-17T06:11:11.617Z,13.37
2018-07-17T06:13:40.026Z,12.83
2018-07-17T06:16:08.469Z,13.37
2018-07-17T06:18:36.888Z,13.70
2018-07-17T06:21:05.355Z,13.20
2018-07-17T06:23:33.753Z,12.90
2018-07-17T06:26:02.158Z,13.03
2018-07-17T06:28:30.722Z,11.23
2018-07-17T06:30:59.169Z,11.90
2018-07-17T06:33:27.555Z,11.37
2018-07-17T06:35:56.054Z,11.70
2018-07-17T06:38:24.470Z,10.23
2018-07-17T06:40:52.943Z,10.37
2018-07-17T06:43:21.342Z,12.03
2018-07-17T06:45:49.429Z,11.70
2018-07-17T06:48:17.833Z,11.37
2018-07-17T06:50:46.282Z,11.20
2018-07-17T06:53:14.643Z,11.57
2018-07-17T06:55:43.056Z,12.87
2018-07-17T06:58:11.610Z,12.57
2018-07-17T07:00:40.064Z,13.13
2018-07-17T07:03:08.449Z,11.90
2018-07-17T07:05:36.862Z,12.60
2018-07-17T07:08:05.320Z,12.43
2018-07-17T07:10:33.674Z,13.10
2018-07-17T07:13:02.125Z,12.37
2018-07-17T07:15:30.642Z,12.63
2018-07-17T07:17:59.072Z,12.20
2018-07-17T07:20:27.486Z,13.90
2018-07-17T07:22:55.868Z,12.77
2018-07-17T07:25:24.274Z,12.77
2018-07-17T07:27:52.705Z,7.93
2018-07-17T07:30:21.263Z,12.27
2018-07-17T07:32:49.715Z,13.60
2018-07-17T07:35:18.152Z,12.87
2018-07-17T07:37:46.595Z,13.80
2018-07-17T07:40:14.978Z,11.90
2018-07-17T07:42:43.443Z,11.33
2018-07-17T07:45:11.848Z,11.90
2018-07-17T07:47:40.260Z,11.83
2018-07-17T07:50:08.836Z,10.23
2018-07-17T07:52:37.251Z,11.53
2018-07-17T07:55:05.838Z,12.00
2018-07-17T07:57:34.281Z,10.40
2018-07-17T08:00:03.153Z,11.13
2018-07-17T08:02:31.589Z,11.20
2018-07-17T08:05:00.011Z,10.73
2018-07-17T08:07:28.445Z,8.93
2018-07-17T08:09:56.853Z,9.63
2018-07-17T08:12:25.387Z,9.33
2018-07-17T08:14:53.795Z,8.60
2018-07-17T08:17:22.205Z,7.87
2018-07-17T08:19:51.282Z,8.43
2018-07-17T08:22:19.693Z,9.03
2018-07-17T08:24:48.074Z,7.57
2018-07-17T08:27:16.479Z,8.67
2018-07-17T08:29:44.999Z,8.90
2018-07-17T08:32:13.496Z,8.00
2018-07-17T08:34:41.910Z,7.13
2018-07-17T08:37:10.370Z,7.73
2018-07-17T08:39:38.799Z,6.87
2018-07-17T08:42:07.342Z,6.70
2018-07-17T08:44:35.797Z,7.13
2018-07-17T08:47:04.348Z,7.33
2018-07-17T08:49:32.833Z,6.20
2018-07-17T08:52:01.218Z,5.80
2018-07-17T08:54:29.602Z,5.70
2018-07-17T08:56:58.009Z,5.80
2018-07-17T08:59:26.444Z,5.17
2018-07-17T09:01:54.863Z,5.80
2018-07-17T09:04:23.220Z,5.97
2018-07-17T09:06:51.644Z,5.30
2018-07-17T09:09:20.051Z,5.13
2018-07-17T09:11:48.447Z,4.80
2018-07-17T09:14:17.005Z,4.67
2018-07-17T09:16:45.416Z,4.67
2018-07-17T09:19:14.149Z,4.83
2018-07-17T09:21:42.661Z,5.00
2018-07-17T09:24:11.057Z,4.07
2018-07-17T09:26:39.549Z,4.43
2018-07-17T09:29:08.011Z,3.53
2018-07-17T09:31:36.400Z,2.63
2018-07-17T09:34:05.521Z,2.90
2018-07-17T09:36:33.868Z,2.87
2018-07-17T09:39:02.966Z,3.10
2018-07-17T09:41:31.268Z,3.13
2018-07-17T09:43:59.653Z,4.90
2018-07-17T09:46:28.065Z,4.77
2018-07-17T09:48:56.701Z,4.17
2018-07-17T09:51:25.110Z,4.23
2018-07-17T09:53:53.545Z,4.40
2018-07-17T09:56:22.593Z,3.60
2018-07-17T09:58:50.999Z,5.43
2018-07-17T10:01:24.701Z,5.17
2018-07-17T10:03:53.081Z,4.10
2018-07-17T10:06:21.509Z,4.03
2018-07-17T10:08:49.873Z,4.33
2018-07-17T10:11:18.312Z,3.90
2018-07-17T10:13:46.762Z,5.70
2018-07-17T10:16:15.177Z,6.17
2018-07-17T10:18:43.542Z,5.63
2018-07-17T10:21:11.989Z,7.57
2018-07-17T10:23:40.429Z,5.20
2018-07-17T10:26:08.812Z,5.73
2018-07-17T10:28:37.225Z,5.67
2018-07-17T10:31:05.605Z,8.90
2018-07-17T10:33:33.991Z,7.40
2018-07-17T10:36:02.365Z,6.07
2018-07-17T10:38:30.755Z,7.70
2018-07-17T10:40:59.148Z,7.97
2018-07-17T10:43:27.629Z,8.73
2018-07-17T10:45:56.068Z,9.17
2018-07-17T10:48:24.463Z,7.33
2018-07-17T10:50:52.850Z,7.63
2018-07-17T10:53:21.239Z,9.33
2018-07-17T10:55:49.648Z,9.07
2018-07-17T10:58:18.031Z,8.70
2018-07-17T11:00:46.165Z,8.80
2018-07-17T11:03:14.553Z,10.60
2018-07-17T11:05:42.942Z,9.70
2018-07-17T11:08:11.374Z,9.43
2018-07-17T11:10:39.816Z,9.33
2018-07-17T11:13:08.216Z,13.70
2018-07-17T11:15:36.614Z,12.50
2018-07-17T11:18:05.135Z,11.73
2018-07-17T11:20:33.547Z,10.20
2018-07-17T11:23:02.043Z,10.73
2018-07-17T11:25:31.156Z,6.80
2018-07-17T11:27:59.582Z,10.60
2018-07-17T11:30:28.005Z,12.60
2018-07-17T11:32:56.498Z,10.40
2018-07-17T11:35:24.909Z,10.90
2018-07-17T11:37:53.305Z,8.77
2018-07-17T11:40:21.759Z,13.33
2018-07-17T11:42:50.172Z,14.63
2018-07-17T11:45:18.590Z,16.87
2018-07-17T11:47:47.078Z,14.23
2018-07-17T11:50:15.475Z,15.40
2018-07-17T11:52:43.889Z,8.70
2018-07-17T11:55:12.314Z,12.93
2018-07-17T11:57:40.740Z,13.57
2018-07-17T12:00:09.232Z,9.67
2018-07-17T12:02:37.694Z,11.90
2018-07-17T12:05:06.121Z,13.57
2018-07-17T12:07:34.742Z,11.30
2018-07-17T12:10:03.182Z,12.57
2018-07-17T12:12:31.662Z,14.37
2018-07-17T12:15:00.051Z,16.90
2018-07-17T12:17:28.448Z,14.60
2018-07-17T12:19:57.003Z,14.53
2018-07-17T12:22:25.383Z,15.10
2018-07-17T12:24:53.790Z,15.80
2018-07-17T12:27:21.954Z,15.47
2018-07-17T12:29:50.374Z,14.13
2018-07-17T12:32:18.854Z,10.30
2018-07-17T12:34:47.287Z,10.30
2018-07-17T12:37:15.654Z,10.13
2018-07-17T12:39:44.033Z,7.83
2018-07-17T12:42:12.442Z,7.43
2018-07-17T12:44:40.842Z,8.13
2018-07-17T12:47:09.138Z,6.47
2018-07-17T12:49:37.533Z,5.83
2018-07-17T12:52:05.991Z,7.67
2018-07-17T12:54:34.404Z,6.83
2018-07-17T12:57:02.754Z,4.67
2018-07-17T12:59:31.293Z,5.33
2018-07-17T13:01:59.778Z,5.23
2018-07-17T13:04:28.242Z,5.37
2018-07-17T13:06:56.749Z,5.80
2018-07-17T13:09:25.336Z,5.33
2018-07-17T13:11:53.705Z,5.30
2018-07-17T13:14:22.890Z,4.70
2018-07-17T13:16:51.277Z,5.70
2018-07-17T13:19:19.694Z,5.33
2018-07-17T13:21:48.131Z,6.30
2018-07-17T13:24:16.509Z,5.73
2018-07-17T13:26:44.873Z,5.43
2018-07-17T13:29:13.329Z,4.97
2018-07-17T13:31:41.727Z,4.23
2018-07-17T13:34:10.123Z,4.70
2018-07-17T13:36:38.610Z,4.40
2018-07-17T13:39:09.606Z,4.27
2018-07-17T13:41:37.999Z,4.10
2018-07-17T13:44:06.463Z,4.23
2018-07-17T13:46:34.888Z,4.00
2018-07-17T13:49:03.297Z,4.30
2018-07-17T13:51:31.726Z,3.50
2018-07-17T13:54:00.129Z,3.70
2018-07-17T13:56:28.574Z,4.20
2018-07-17T13:58:57.135Z,3.60
2018-07-17T14:01:25.541Z,4.80
2018-07-17T14:03:53.933Z,4.47
2018-07-17T14:06:22.363Z,4.50
2018-07-17T14:08:50.787Z,4.40
2018-07-17T14:11:19.198Z,4.43
2018-07-17T14:13:47.678Z,3.50
2018-07-17T14:16:16.125Z,2.97
2018-07-17T14:18:44.240Z,3.07
2018-07-17T14:21:12.646Z,2.93
2018-07-17T14:23:41.037Z,2.40
2018-07-17T14:26:09.437Z,2.67
2018-07-17T14:28:37.936Z,2.90
2018-07-17T14:31:06.610Z,3.30
2018-07-17T14:33:35.822Z,3.10
2018-07-17T14:36:04.230Z,3.03
2018-07-17T14:38:32.746Z,2.63
2018-07-17T14:41:01.188Z,2.90
2018-07-17T14:43:29.587Z,2.90
2018-07-17T14:45:58.018Z,2.70
2018-07-17T14:48:26.384Z,2.80
2018-07-17T14:50:54.774Z,2.80
2018-07-17T14:53:23.178Z,3.10
2018-07-17T14:55:51.633Z,3.43
2018-07-17T14:58:20.122Z,3.83
2018-07-17T15:00:49.357Z,3.50
2018-07-17T15:03:17.798Z,3.17
2018-07-17T15:05:46.197Z,3.23
2018-07-17T15:08:14.289Z,4.63
2018-07-17T15:10:42.685Z,3.63
2018-07-17T15:13:11.092Z,3.20
2018-07-17T15:15:39.679Z,3.70
2018-07-17T15:18:08.023Z,4.03
2018-07-17T15:20:36.445Z,3.70
2018-07-17T15:23:05.478Z,3.20
2018-07-17T15:25:33.848Z,2.93
2018-07-17T15:28:02.628Z,3.57
2018-07-17T15:30:31.305Z,3.00
2018-07-17T15:32:59.819Z,3.30
2018-07-17T15:35:28.220Z,3.00
2018-07-17T15:37:56.958Z,3.00
2018-07-17T15:40:25.450Z,2.90
2018-07-17T15:42:53.833Z,3.13
2018-07-17T15:45:22.454Z,2.50
2018-07-17T15:47:50.536Z,2.70
2018-07-17T15:50:18.920Z,2.30
2018-07-17T15:52:47.422Z,2.50
2018-07-17T15:55:15.864Z,2.13
2018-07-17T15:57:44.285Z,2.80
2018-07-17T16:00:12.826Z,2.40
2018-07-17T16:02:41.342Z,2.53
2018-07-17T16:05:09.805Z,2.67
2018-07-17T16:07:38.210Z,1.90
2018-07-17T16:10:06.799Z,2.07
2018-07-17T16:12:35.282Z,2.37
2018-07-17T16:15:03.726Z,2.13
2018-07-17T16:17:32.105Z,2.00
2018-07-17T16:20:00.539Z,2.47
2018-07-17T16:22:28.998Z,2.50
2018-07-17T16:24:57.518Z,2.67
2018-07-17T16:27:25.904Z,2.30
2018-07-17T16:29:54.355Z,2.63
2018-07-17T16:32:23.501Z,2.22
2018-07-17T16:34:51.864Z,2.27
2018-07-17T16:37:20.237Z,2.23
2018-07-17T16:39:48.698Z,2.30
2018-07-17T16:42:17.263Z,1.97
2018-07-17T16:44:45.602Z,1.87
2018-07-17T16:47:13.958Z,2.17
2018-07-17T16:49:42.417Z,2.70
2018-07-17T16:52:10.849Z,2.20
2018-07-17T16:54:39.205Z,2.10
2018-07-17T16:57:07.626Z,2.07
2018-07-17T16:59:36.006Z,2.10
2018-07-17T17:02:04.416Z,2.23
2018-07-17T17:04:32.829Z,2.37
2018-07-17T17:07:01.217Z,2.33
2018-07-17T17:09:29.738Z,2.20
2018-07-17T17:11:58.205Z,2.00
2018-07-17T17:14:26.663Z,2.53
2018-07-17T17:16:55.061Z,2.90
2018-07-17T17:19:23.527Z,2.43
2018-07-17T17:21:51.951Z,2.30
2018-07-17T17:24:20.528Z,2.53
2018-07-17T17:26:48.938Z,2.30
2018-07-17T17:29:17.457Z,2.20
2018-07-17T17:31:45.822Z,2.20
2018-07-17T17:34:14.274Z,2.23
2018-07-17T17:36:42.745Z,2.00
2018-07-17T17:39:11.609Z,2.23
2018-07-17T17:41:39.764Z,2.13
2018-07-17T17:44:08.764Z,2.00
2018-07-17T17:46:37.473Z,2.00
2018-07-17T17:49:06.257Z,1.93
2018-07-17T17:51:34.728Z,2.10
2018-07-17T17:54:03.093Z,2.00
2018-07-17T17:56:31.563Z,2.20
2018-07-17T17:58:59.958Z,2.00
2018-07-17T18:01:28.380Z,2.00
2018-07-17T18:03:57.640Z,2.00
2018-07-17T18:06:26.113Z,2.03
2018-07-17T18:08:54.574Z,2.33
2018-07-17T18:11:23.664Z,2.30
2018-07-17T18:13:52.142Z,2.03
2018-07-17T18:16:20.570Z,2.30
2018-07-17T18:18:49.174Z,2.30
2018-07-17T18:21:17.631Z,1.70
2018-07-17T18:23:46.082Z,1.77
2018-07-17T18:26:14.497Z,1.67
2018-07-17T18:28:42.937Z,1.83
2018-07-17T18:31:11.296Z,1.43
2018-07-17T18:33:39.844Z,1.73
2018-07-17T18:36:08.237Z,1.60
2018-07-17T18:38:36.702Z,1.50
2018-07-17T18:41:05.736Z,1.70
2018-07-17T18:43:34.204Z,1.40
2018-07-17T18:46:02.629Z,1.60
2018-07-17T18:48:31.009Z,1.63
2018-07-17T18:50:59.549Z,1.40
2018-07-17T18:53:28.002Z,1.67
2018-07-17T18:55:59.321Z,1.97
2018-07-17T18:58:27.782Z,2.00
2018-07-17T19:00:56.329Z,2.07
2018-07-17T19:03:24.759Z,2.00
2018-07-17T19:05:53.396Z,1.83
2018-07-17T19:08:21.790Z,2.37
2018-07-17T19:10:50.240Z,2.00
2018-07-17T19:13:18.823Z,2.47
2018-07-17T19:15:47.233Z,2.20
2018-07-17T19:18:15.634Z,2.10
2018-07-17T19:20:44.050Z,2.37
2018-07-17T19:23:12.502Z,2.30
2018-07-17T19:25:41.008Z,2.00
2018-07-17T19:28:09.354Z,2.10
2018-07-17T19:30:37.796Z,2.10
2018-07-17T19:33:06.241Z,2.37
2018-07-17T19:35:34.727Z,2.50
2018-07-17T19:38:02.847Z,2.40
2018-07-17T19:40:31.394Z,2.50
2018-07-17T19:42:59.841Z,2.20
2018-07-17T19:45:27.985Z,2.40
2018-07-17T19:47:56.462Z,2.10
2018-07-17T19:50:25.034Z,2.10
2018-07-17T19:52:53.874Z,2.13
2018-07-17T19:55:22.328Z,2.43
2018-07-17T19:57:51.036Z,2.40
2018-07-17T20:00:19.525Z,2.17
2018-07-17T20:02:47.994Z,2.27
2018-07-17T20:05:16.503Z,2.43
2018-07-17T20:07:44.922Z,2.43
2018-07-17T20:10:13.414Z,2.67
2018-07-17T20:12:41.867Z,2.43
2018-07-17T20:15:10.376Z,2.57
2018-07-17T20:17:38.774Z,2.60
2018-07-17T20:20:08.325Z,2.10
2018-07-17T20:22:36.767Z,2.83
2018-07-17T20:25:05.354Z,3.00
2018-07-17T20:27:33.793Z,2.50
2018-07-17T20:30:02.266Z,2.60
2018-07-17T20:32:30.662Z,2.37
2018-07-17T20:34:59.869Z,2.40
2018-07-17T20:37:28.267Z,2.80
2018-07-17T20:39:56.737Z,2.80
2018-07-17T20:42:25.339Z,2.40
2018-07-17T20:44:53.767Z,2.80
2018-07-17T20:47:22.393Z,2.40
2018-07-17T20:49:50.921Z,3.10
2018-07-17T20:52:19.478Z,2.90
2018-07-17T20:54:47.889Z,2.70
2018-07-17T20:57:16.289Z,2.73
2018-07-17T20:59:44.715Z,2.53
2018-07-17T21:02:13.205Z,2.83
2018-07-17T21:04:41.733Z,3.03
2018-07-17T21:07:10.173Z,2.80
2018-07-17T21:09:38.607Z,2.70
2018-07-17T21:12:06.992Z,2.70
2018-07-17T21:14:35.446Z,2.80
2018-07-17T21:17:03.853Z,2.83
2018-07-17T21:19:32.274Z,2.90
2018-07-17T21:22:00.712Z,2.80
2018-07-17T21:24:29.394Z,2.83
2018-07-17T21:26:57.845Z,3.00
2018-07-17T21:29:26.293Z,2.80
2018-07-17T21:31:54.730Z,2.87
2018-07-17T21:34:23.162Z,2.80
2018-07-17T21:36:51.649Z,2.73
2018-07-17T21:39:20.122Z,2.90
2018-07-17T21:41:48.603Z,2.83
2018-07-17T21:44:17.050Z,2.90
2018-07-17T21:46:45.456Z,2.80
2018-07-17T21:49:13.925Z,2.70
2018-07-17T21:51:42.345Z,2.60
2018-07-17T21:54:10.754Z,2.87
2018-07-17T21:56:39.213Z,3.13
2018-07-17T21:59:08.315Z,2.60
2018-07-17T22:01:37.341Z,2.80
2018-07-17T22:04:06.085Z,2.63
2018-07-17T22:06:34.474Z,2.70
2018-07-17T22:09:03.741Z,2.70
2018-07-17T22:11:32.188Z,2.57
2018-07-17T22:14:00.608Z,2.60
2018-07-17T22:16:29.026Z,2.97
2018-07-17T22:18:57.435Z,2.50
2018-07-17T22:21:25.910Z,2.70
2018-07-17T22:23:54.382Z,2.67
2018-07-17T22:26:22.764Z,2.70
2018-07-17T22:28:51.314Z,2.80
2018-07-17T22:31:19.805Z,3.00
2018-07-17T22:33:48.435Z,2.70
2018-07-17T22:36:16.894Z,2.83
2018-07-17T22:38:45.357Z,2.53
2018-07-17T22:41:13.900Z,3.13
2018-07-17T22:43:42.353Z,2.80
2018-07-17T22:46:10.498Z,2.83
2018-07-17T22:48:38.862Z,2.57
2018-07-17T22:51:07.522Z,2.83
2018-07-17T22:53:36.082Z,2.77
2018-07-17T22:56:04.550Z,3.00
2018-07-17T22:58:32.978Z,2.90
2018-07-17T23:01:01.378Z,2.97
2018-07-17T23:03:29.762Z,3.07
2018-07-17T23:05:58.169Z,3.03
2018-07-17T23:08:26.546Z,2.97
2018-07-17T23:10:54.959Z,3.00
2018-07-17T23:13:23.356Z,3.20
2018-07-17T23:15:51.736Z,3.00
2018-07-17T23:18:20.177Z,2.83
2018-07-17T23:20:48.645Z,3.20
2018-07-17T23:23:17.025Z,2.70
2018-07-17T23:25:45.456Z,2.90
2018-07-17T23:28:13.868Z,2.80
2018-07-17T23:30:42.246Z,3.23
2018-07-17T23:33:10.648Z,3.20
2018-07-17T23:35:39.067Z,3.10
2018-07-17T23:38:07.454Z,3.20
2018-07-17T23:40:35.898Z,3.77
2018-07-17T23:43:04.373Z,3.33
2018-07-17T23:45:32.757Z,3.70
2018-07-17T23:48:01.206Z,3.60
2018-07-17T23:50:29.652Z,3.37
2018-07-17T23:52:58.019Z,3.80
2018-07-17T23:55:26.394Z,3.53
2018-07-17T23:57:54.827Z,3.80
